Dodworth, United Kingdom
Current Conditions -  °F | °C
As of 1:20 PM on Monday 22 Dec 2014 (Local Time) from EGCN Reporting Station
Overcast Overcast  
Wind Chill: 57°   Ceiling: 2700
Heat Index: 57°   Visibility: 6mi
Dew Point: 50°   Wind: 20mph
Humidity: 77%   Direction: 220°SW
Pressure: 29.83"   Gusts: NA
Location:  53.54°N, 1.53°W
Report Text: EGCN 221320Z 22017KT 9999 BKN027 OVC033 14/10 Q1010
Loading
Personal Weather Stations






























Interactive Weather Map New forecast layout! Learn more

10-Day Weather Forecast

Advertisements
Track Severe Weather on mobile